createdAt,value
2019-05-06T00:02:01.238Z,4.89
2019-05-06T00:04:31.670Z,4.64
2019-05-06T00:07:04.270Z,4.49
2019-05-06T00:09:34.950Z,4.43
2019-05-06T00:12:07.217Z,4.62
2019-05-06T00:14:37.654Z,4.66
2019-05-06T00:17:09.409Z,4.39
2019-05-06T00:19:39.902Z,4.35
2019-05-06T00:22:10.677Z,4.33
2019-05-06T00:24:47.661Z,4.49
2019-05-06T00:27:27.297Z,4.36
2019-05-06T00:29:57.785Z,4.25
2019-05-06T00:32:28.219Z,4.27
2019-05-06T00:34:58.649Z,4.46
2019-05-06T00:37:29.132Z,4.52
2019-05-06T00:40:07.567Z,4.56
2019-05-06T00:42:54.085Z,4.58
2019-05-06T00:45:24.466Z,4.56
2019-05-06T00:47:55.017Z,4.48
2019-05-06T00:50:25.828Z,4.49
2019-05-06T00:52:57.469Z,4.46
2019-05-06T00:55:28.320Z,4.42
2019-05-06T00:57:59.672Z,4.36
2019-05-06T01:00:33.853Z,4.30
2019-05-06T01:03:04.829Z,4.11
2019-05-06T01:05:35.257Z,4.24
2019-05-06T01:08:06.224Z,4.19
2019-05-06T01:10:36.693Z,4.11
2019-05-06T01:13:29.368Z,4.20
2019-05-06T01:15:59.860Z,4.19
2019-05-06T01:18:30.295Z,4.15
2019-05-06T01:21:14.555Z,4.07
2019-05-06T01:23:46.323Z,4.01
2019-05-06T01:26:18.702Z,3.95
2019-05-06T01:28:49.447Z,3.90
2019-05-06T01:31:20.273Z,3.88
2019-05-06T01:33:51.163Z,3.90
2019-05-06T01:36:22.005Z,3.72
2019-05-06T01:39:10.597Z,3.63
2019-05-06T01:42:04.479Z,3.67
2019-05-06T01:44:35.226Z,3.75
2019-05-06T01:47:05.754Z,3.78
2019-05-06T01:49:36.889Z,3.78
2019-05-06T01:52:08.031Z,3.82
2019-05-06T01:54:39.273Z,3.80
2019-05-06T01:57:09.745Z,3.69
2019-05-06T01:59:40.182Z,3.74
2019-05-06T02:02:10.622Z,3.69
2019-05-06T02:04:41.517Z,3.74
2019-05-06T02:07:11.944Z,3.68
2019-05-06T02:09:44.598Z,3.71
2019-05-06T02:12:14.861Z,3.56
2019-05-06T02:14:45.757Z,3.64
2019-05-06T02:17:16.189Z,3.63
2019-05-06T02:19:47.468Z,3.61
2019-05-06T02:22:26.567Z,3.57
2019-05-06T02:25:00.993Z,3.55
2019-05-06T02:27:31.426Z,3.60
2019-05-06T02:30:31.472Z,3.63
2019-05-06T02:33:20.831Z,3.65
2019-05-06T02:35:57.789Z,3.64
2019-05-06T02:38:39.674Z,3.68
2019-05-06T02:41:04.250Z,3.71
2019-05-06T02:43:34.906Z,3.64
2019-05-06T02:46:05.668Z,3.60
2019-05-06T02:48:58.626Z,3.61
2019-05-06T02:51:33.365Z,3.66
2019-05-06T02:54:03.605Z,3.69
2019-05-06T02:56:34.045Z,3.59
2019-05-06T02:59:04.474Z,3.61
2019-05-06T03:01:35.025Z,3.59
2019-05-06T03:04:05.482Z,3.57
2019-05-06T03:06:35.916Z,3.48
2019-05-06T03:09:08.002Z,3.48
2019-05-06T03:11:38.426Z,3.50
2019-05-06T03:14:09.248Z,3.55
2019-05-06T03:16:39.735Z,3.56
2019-05-06T03:19:13.298Z,3.62
2019-05-06T03:22:07.982Z,3.60
2019-05-06T03:24:46.940Z,3.65
2019-05-06T03:27:17.823Z,3.70
2019-05-06T03:29:48.259Z,3.74
2019-05-06T03:32:25.257Z,3.80
2019-05-06T03:35:16.232Z,3.88
2019-05-06T03:37:24.069Z,3.95
2019-05-06T03:39:54.621Z,3.99
2019-05-06T03:42:25.705Z,4.03
2019-05-06T03:45:00.107Z,4.05
2019-05-06T03:47:45.438Z,4.10
2019-05-06T03:50:16.044Z,4.06
2019-05-06T03:52:46.833Z,4.08
2019-05-06T03:55:17.261Z,4.15
2019-05-06T03:57:49.259Z,4.18
2019-05-06T04:00:20.240Z,4.19
2019-05-06T04:02:53.525Z,4.19
2019-05-06T04:05:23.785Z,4.22
2019-05-06T04:07:55.385Z,4.25
2019-05-06T04:10:26.085Z,4.23
2019-05-06T04:12:58.213Z,4.21
2019-05-06T04:15:34.335Z,4.18
2019-05-06T04:18:08.715Z,4.13
2019-05-06T04:20:53.425Z,4.16
2019-05-06T04:23:33.289Z,4.13
2019-05-06T04:26:24.563Z,4.12
2019-05-06T04:28:55.099Z,4.14
2019-05-06T04:31:26.820Z,4.28
2019-05-06T04:34:10.181Z,4.31
2019-05-06T04:36:33.622Z,4.32
2019-05-06T04:39:04.332Z,4.30
2019-05-06T04:41:35.666Z,4.24
2019-05-06T04:44:06.107Z,4.42
2019-05-06T04:46:36.648Z,4.42
2019-05-06T04:49:10.781Z,4.49
2019-05-06T04:51:39.593Z,4.54
2019-05-06T04:54:13.442Z,4.53
2019-05-06T04:56:43.982Z,4.53
2019-05-06T04:59:15.580Z,4.61
2019-05-06T05:01:46.048Z,4.69
2019-05-06T05:04:28.380Z,4.81
2019-05-06T05:06:49.576Z,4.91
2019-05-06T05:09:22.855Z,4.93
2019-05-06T05:11:56.937Z,4.99
2019-05-06T05:14:46.997Z,5.06
2019-05-06T05:17:42.102Z,5.10
2019-05-06T05:20:12.795Z,5.25
2019-05-06T05:22:43.789Z,5.30
2019-05-06T05:25:14.327Z,5.38
2019-05-06T05:27:45.437Z,5.46
2019-05-06T05:30:16.249Z,5.46
2019-05-06T05:32:46.685Z,5.53
2019-05-06T05:35:17.119Z,5.56
2019-05-06T05:37:48.481Z,5.64
2019-05-06T05:40:19.333Z,5.66
2019-05-06T05:43:03.024Z,5.66
2019-05-06T05:45:33.447Z,5.80
2019-05-06T05:48:08.201Z,5.86
2019-05-06T05:50:42.047Z,5.89
2019-05-06T05:53:12.817Z,5.97
2019-05-06T05:55:43.983Z,6.00
2019-05-06T05:58:15.025Z,6.03
2019-05-06T06:00:45.505Z,6.09
2019-05-06T06:03:16.809Z,6.14
2019-05-06T06:05:47.248Z,6.22
2019-05-06T06:08:18.073Z,6.21
2019-05-06T06:10:57.000Z,6.20
2019-05-06T06:13:27.477Z,6.26
2019-05-06T06:16:23.402Z,6.35
2019-05-06T06:19:12.706Z,6.47
2019-05-06T06:21:47.433Z,6.45
2019-05-06T06:24:22.667Z,6.55
2019-05-06T06:26:53.232Z,6.56
2019-05-06T06:29:23.766Z,6.59
2019-05-06T06:32:32.608Z,6.65
2019-05-06T06:35:14.646Z,6.71
2019-05-06T06:38:05.345Z,6.78
2019-05-06T06:40:35.881Z,6.78
2019-05-06T06:43:12.439Z,6.87
2019-05-06T06:45:43.001Z,6.88
2019-05-06T06:48:14.201Z,6.99
2019-05-06T06:50:45.363Z,7.14
2019-05-06T06:53:15.790Z,7.21
2019-05-06T06:55:47.949Z,7.31
2019-05-06T06:58:36.365Z,7.40
2019-05-06T07:01:34.898Z,7.48
2019-05-06T07:04:12.967Z,7.56
2019-05-06T07:06:47.678Z,7.62
2019-05-06T07:09:18.613Z,7.65
2019-05-06T07:11:52.475Z,7.69
2019-05-06T07:14:22.624Z,7.70
2019-05-06T07:16:53.477Z,7.75
2019-05-06T07:19:32.635Z,7.82
2019-05-06T07:22:02.966Z,7.81
2019-05-06T07:24:34.013Z,7.87
2019-05-06T07:27:16.033Z,7.87
2019-05-06T07:29:48.680Z,7.90
2019-05-06T07:32:20.477Z,7.95
2019-05-06T07:34:53.069Z,7.99
2019-05-06T07:37:23.519Z,7.94
2019-05-06T07:39:53.945Z,7.94
2019-05-06T07:42:32.259Z,8.09
2019-05-06T07:45:32.730Z,8.22
2019-05-06T07:48:05.717Z,8.28
2019-05-06T07:50:36.149Z,8.32
2019-05-06T07:53:08.029Z,8.38
2019-05-06T07:55:42.422Z,8.32
2019-05-06T07:58:13.791Z,8.35
2019-05-06T08:00:44.601Z,8.64
2019-05-06T08:03:15.194Z,8.80
2019-05-06T08:05:55.250Z,8.93
2019-05-06T08:08:18.236Z,9.02
2019-05-06T08:10:48.660Z,9.02
2019-05-06T08:13:19.501Z,8.92
2019-05-06T08:15:52.694Z,9.14
2019-05-06T08:18:23.333Z,9.23
2019-05-06T08:20:53.765Z,9.24
2019-05-06T08:23:32.520Z,9.19
2019-05-06T08:26:12.601Z,9.04
2019-05-06T08:28:40.471Z,8.99
2019-05-06T08:31:08.092Z,8.73
2019-05-06T08:33:39.246Z,8.99
2019-05-06T08:36:14.917Z,9.41
2019-05-06T08:38:59.251Z,9.64
2019-05-06T08:41:29.905Z,9.64
2019-05-06T08:44:02.672Z,9.76
2019-05-06T08:46:33.281Z,9.77
2019-05-06T08:49:03.780Z,9.70
2019-05-06T08:51:56.370Z,9.57
2019-05-06T08:54:46.072Z,9.43
2019-05-06T08:57:16.576Z,9.36
2019-05-06T08:59:47.379Z,9.21
2019-05-06T09:02:19.065Z,9.19
2019-05-06T09:04:51.723Z,9.39
2019-05-06T09:07:23.750Z,9.67
2019-05-06T09:09:53.792Z,10.01
2019-05-06T09:12:24.231Z,10.13
2019-05-06T09:14:54.668Z,10.11
2019-05-06T09:17:25.214Z,10.15
2019-05-06T09:19:55.653Z,10.20
2019-05-06T09:22:26.494Z,10.22
2019-05-06T09:24:56.979Z,10.37
2019-05-06T09:27:52.695Z,10.29
2019-05-06T09:30:36.770Z,10.60
2019-05-06T09:33:07.270Z,10.92
2019-05-06T09:35:37.702Z,10.84
2019-05-06T09:38:08.536Z,10.65
2019-05-06T09:40:38.965Z,10.68
2019-05-06T09:43:09.410Z,10.58
2019-05-06T09:45:42.529Z,10.36
2019-05-06T09:48:23.870Z,10.27
2019-05-06T09:50:54.364Z,10.29
2019-05-06T09:53:34.107Z,10.22
2019-05-06T09:56:36.234Z,10.26
2019-05-06T09:59:07.439Z,10.31
2019-05-06T10:01:38.174Z,10.20
2019-05-06T10:04:08.658Z,10.10
2019-05-06T10:06:39.211Z,9.98
2019-05-06T10:09:16.020Z,9.99
2019-05-06T10:11:44.147Z,9.91
2019-05-06T10:14:14.696Z,9.92
2019-05-06T10:16:45.231Z,10.22
2019-05-06T10:19:16.099Z,10.51
2019-05-06T10:21:46.534Z,10.93
2019-05-06T10:24:17.375Z,11.08
2019-05-06T10:26:52.568Z,11.15
2019-05-06T10:29:37.157Z,10.87
2019-05-06T10:32:16.634Z,10.83
2019-05-06T10:34:47.430Z,10.63
2019-05-06T10:37:33.503Z,10.36
2019-05-06T10:40:13.345Z,10.29
2019-05-06T10:42:52.421Z,10.38
2019-05-06T10:45:32.413Z,10.59
2019-05-06T10:48:02.591Z,10.82
2019-05-06T10:50:37.158Z,10.93
2019-05-06T10:53:18.648Z,11.00
2019-05-06T10:55:53.671Z,11.03
2019-05-06T10:58:24.373Z,11.14
2019-05-06T11:01:09.269Z,11.25
2019-05-06T11:03:41.559Z,11.25
2019-05-06T11:06:13.194Z,11.23
2019-05-06T11:08:43.782Z,11.43
2019-05-06T11:11:20.058Z,11.64
2019-05-06T11:13:46.768Z,11.68
2019-05-06T11:16:18.082Z,11.63
2019-05-06T11:18:48.572Z,11.62
2019-05-06T11:21:19.004Z,11.81
2019-05-06T11:23:49.430Z,12.29
2019-05-06T11:26:19.912Z,12.23
2019-05-06T11:28:54.057Z,12.28
2019-05-06T11:31:33.210Z,12.67
2019-05-06T11:34:12.553Z,12.88
2019-05-06T11:36:52.382Z,13.32
2019-05-06T11:39:23.569Z,13.04
2019-05-06T11:42:22.589Z,12.76
2019-05-06T11:44:26.315Z,12.50
2019-05-06T11:46:56.741Z,12.41
2019-05-06T11:49:27.179Z,12.31
2019-05-06T11:51:58.053Z,12.53
2019-05-06T11:54:28.645Z,12.60
2019-05-06T11:56:59.721Z,12.58
2019-05-06T11:59:30.521Z,12.65
2019-05-06T12:02:02.969Z,12.77
2019-05-06T12:04:33.393Z,12.76
2019-05-06T12:07:11.022Z,13.22
2019-05-06T12:09:36.426Z,13.64
2019-05-06T12:12:07.276Z,13.88
2019-05-06T12:14:37.760Z,14.10
2019-05-06T12:17:08.293Z,13.64
2019-05-06T12:19:38.727Z,13.26
2019-05-06T12:22:09.617Z,12.77
2019-05-06T12:24:40.045Z,12.53
2019-05-06T12:27:12.611Z,12.41
2019-05-06T12:29:43.067Z,12.44
2019-05-06T12:32:23.881Z,12.44
2019-05-06T12:34:54.529Z,12.46
2019-05-06T12:37:26.658Z,12.40
2019-05-06T12:39:59.172Z,12.23
2019-05-06T12:42:33.909Z,12.04
2019-05-06T12:45:23.165Z,11.99
2019-05-06T12:47:57.286Z,11.96
2019-05-06T12:50:27.714Z,11.90
2019-05-06T12:52:58.209Z,11.77
2019-05-06T12:55:29.986Z,11.89
2019-05-06T12:58:02.792Z,11.93
2019-05-06T13:00:34.442Z,11.90
2019-05-06T13:03:04.936Z,11.91
2019-05-06T13:05:35.733Z,11.96
2019-05-06T13:08:06.846Z,11.92
2019-05-06T13:10:37.797Z,12.05
2019-05-06T13:13:08.393Z,12.21
2019-05-06T13:15:39.946Z,12.32
2019-05-06T13:18:10.756Z,12.36
2019-05-06T13:20:48.222Z,12.40
2019-05-06T13:23:35.041Z,12.45
2019-05-06T13:26:04.565Z,12.46
2019-05-06T13:28:37.857Z,12.32
2019-05-06T13:31:17.125Z,12.24
2019-05-06T13:34:03.487Z,12.29
2019-05-06T13:36:33.934Z,12.27
2019-05-06T13:39:13.989Z,12.18
2019-05-06T13:41:38.220Z,12.29
2019-05-06T13:44:13.123Z,12.30
2019-05-06T13:46:47.184Z,12.44
2019-05-06T13:49:35.438Z,12.43
2019-05-06T13:52:07.465Z,12.55
2019-05-06T13:54:38.095Z,12.62
2019-05-06T13:57:08.698Z,12.69
2019-05-06T13:59:39.185Z,12.66
2019-05-06T14:02:33.841Z,12.51
2019-05-06T14:05:03.684Z,12.42
2019-05-06T14:07:34.829Z,12.40
2019-05-06T14:10:05.863Z,12.48
2019-05-06T14:12:36.682Z,12.53
2019-05-06T14:15:07.782Z,12.52
2019-05-06T14:17:38.503Z,12.62
2019-05-06T14:20:09.077Z,12.62
2019-05-06T14:22:39.518Z,12.48
2019-05-06T14:25:33.461Z,12.59
2019-05-06T14:28:12.397Z,12.73
2019-05-06T14:30:55.394Z,13.00
2019-05-06T14:33:25.830Z,13.13
2019-05-06T14:35:56.264Z,13.31
2019-05-06T14:38:27.095Z,13.32
2019-05-06T14:41:07.981Z,13.34
2019-05-06T14:43:38.462Z,13.18
2019-05-06T14:46:10.173Z,12.99
2019-05-06T14:48:43.615Z,12.76
2019-05-06T14:51:14.540Z,12.65
2019-05-06T14:53:44.975Z,12.62
2019-05-06T14:56:42.732Z,12.45
2019-05-06T14:59:13.383Z,12.52
2019-05-06T15:01:45.586Z,12.45
2019-05-06T15:04:16.090Z,12.37
2019-05-06T15:06:47.259Z,12.30
2019-05-06T15:09:18.040Z,12.17
2019-05-06T15:11:48.961Z,12.17
2019-05-06T15:14:19.393Z,12.18
2019-05-06T15:16:49.837Z,11.95
2019-05-06T15:19:22.592Z,11.85
2019-05-06T15:21:53.220Z,11.70
2019-05-06T15:24:24.521Z,11.58
2019-05-06T15:26:55.053Z,11.36
2019-05-06T15:29:25.860Z,11.23
2019-05-06T15:32:08.110Z,11.14
2019-05-06T15:34:44.275Z,11.03
2019-05-06T15:37:20.982Z,11.05
2019-05-06T15:39:52.235Z,11.09
2019-05-06T15:42:22.833Z,11.06
2019-05-06T15:44:53.319Z,10.99
2019-05-06T15:47:23.762Z,10.89
2019-05-06T15:49:54.195Z,10.97
2019-05-06T15:52:24.679Z,10.91
2019-05-06T15:54:55.118Z,10.91
2019-05-06T15:57:25.746Z,10.94
2019-05-06T15:59:56.676Z,10.99
2019-05-06T16:02:27.105Z,11.01
2019-05-06T16:04:57.562Z,10.82
2019-05-06T16:07:28.130Z,10.92
2019-05-06T16:09:58.574Z,10.85
2019-05-06T16:12:29.341Z,10.85
2019-05-06T16:15:02.413Z,10.85
2019-05-06T16:17:32.807Z,10.89
2019-05-06T16:20:03.543Z,10.91
2019-05-06T16:22:34.075Z,10.87
2019-05-06T16:25:14.723Z,10.75
2019-05-06T16:27:50.818Z,10.74
2019-05-06T16:30:24.096Z,10.64
2019-05-06T16:32:52.800Z,10.55
2019-05-06T16:35:24.297Z,10.41
2019-05-06T16:37:54.733Z,10.21
2019-05-06T16:40:25.527Z,10.18
2019-05-06T16:42:58.197Z,10.04
2019-05-06T16:45:28.908Z,10.13
2019-05-06T16:47:59.773Z,10.14
2019-05-06T16:50:32.591Z,10.24
2019-05-06T16:53:02.842Z,10.14
2019-05-06T16:56:02.109Z,10.16
2019-05-06T16:58:34.777Z,10.24
2019-05-06T17:01:06.125Z,10.29
2019-05-06T17:03:45.641Z,10.32
2019-05-06T17:06:18.811Z,10.29
2019-05-06T17:08:52.678Z,10.11
2019-05-06T17:11:28.222Z,10.23
2019-05-06T17:13:55.176Z,10.17
2019-05-06T17:16:25.611Z,10.16
2019-05-06T17:18:56.918Z,10.30
2019-05-06T17:21:28.161Z,10.14
2019-05-06T17:23:59.004Z,10.01
2019-05-06T17:26:29.448Z,10.15
2019-05-06T17:29:09.163Z,10.01
2019-05-06T17:31:58.401Z,9.88
2019-05-06T17:34:32.448Z,9.76
2019-05-06T17:37:12.563Z,9.86
2019-05-06T17:39:43.648Z,9.87
2019-05-06T17:42:14.205Z,9.83
2019-05-06T17:44:44.912Z,9.84
2019-05-06T17:47:34.328Z,9.80
2019-05-06T17:50:05.767Z,9.89
2019-05-06T17:52:36.220Z,9.87
2019-05-06T17:55:07.404Z,9.73
2019-05-06T17:57:37.898Z,9.64
2019-05-06T18:00:13.214Z,9.58
2019-05-06T18:02:44.627Z,9.53
2019-05-06T18:05:15.657Z,9.51
2019-05-06T18:07:46.538Z,9.41
2019-05-06T18:10:17.556Z,9.41
2019-05-06T18:12:48.803Z,9.39
2019-05-06T18:15:19.240Z,9.21
2019-05-06T18:17:52.339Z,9.17
2019-05-06T18:20:24.474Z,9.20
2019-05-06T18:22:54.925Z,9.10
2019-05-06T18:25:26.031Z,9.24
2019-05-06T18:27:58.437Z,9.28
2019-05-06T18:30:33.639Z,9.30
2019-05-06T18:33:02.308Z,9.31
2019-05-06T18:35:33.070Z,9.29
2019-05-06T18:38:03.961Z,9.32
2019-05-06T18:40:34.787Z,9.29
2019-05-06T18:43:05.311Z,9.32
2019-05-06T18:45:36.204Z,9.32
2019-05-06T18:48:07.100Z,9.36
2019-05-06T18:50:38.166Z,9.30
2019-05-06T18:53:09.996Z,9.29
2019-05-06T18:55:42.148Z,9.18
2019-05-06T18:58:13.148Z,9.12
2019-05-06T19:00:45.431Z,9.20
2019-05-06T19:03:16.319Z,9.15
2019-05-06T19:05:46.786Z,9.07
2019-05-06T19:08:32.507Z,9.03
2019-05-06T19:11:03.709Z,9.00
2019-05-06T19:13:34.453Z,8.88
2019-05-06T19:16:05.076Z,8.84
2019-05-06T19:18:38.503Z,8.75
2019-05-06T19:21:08.536Z,8.82
2019-05-06T19:23:39.195Z,8.74
2019-05-06T19:26:12.307Z,8.68
2019-05-06T19:28:43.641Z,8.62
2019-05-06T19:31:14.414Z,8.58
2019-05-06T19:33:45.234Z,8.54
2019-05-06T19:36:16.069Z,8.55
2019-05-06T19:38:46.933Z,8.59
2019-05-06T19:41:17.894Z,8.58
2019-05-06T19:43:48.531Z,8.60
2019-05-06T19:46:19.350Z,8.59
2019-05-06T19:48:52.376Z,8.49
2019-05-06T19:51:23.438Z,8.49
2019-05-06T19:53:53.871Z,8.49
2019-05-06T19:56:24.763Z,8.51
2019-05-06T19:58:56.127Z,8.59
2019-05-06T20:01:26.952Z,8.59
2019-05-06T20:03:57.795Z,8.58
2019-05-06T20:06:55.174Z,8.60
2019-05-06T20:09:44.373Z,8.56
2019-05-06T20:12:30.191Z,8.48
2019-05-06T20:15:18.686Z,8.45
2019-05-06T20:17:49.127Z,8.49
2019-05-06T20:20:19.875Z,8.42
2019-05-06T20:22:50.364Z,8.33
2019-05-06T20:25:22.030Z,8.33
2019-05-06T20:27:53.514Z,8.34
2019-05-06T20:30:24.459Z,8.42
2019-05-06T20:32:54.898Z,8.37
2019-05-06T20:35:25.342Z,8.41
2019-05-06T20:37:55.834Z,8.35
2019-05-06T20:40:26.278Z,8.27
2019-05-06T20:42:56.719Z,8.22
2019-05-06T20:45:27.643Z,8.09
2019-05-06T20:47:59.122Z,8.02
2019-05-06T20:50:32.023Z,7.88
2019-05-06T20:53:02.534Z,7.80
2019-05-06T20:55:35.593Z,7.74
2019-05-06T20:58:05.163Z,7.72
2019-05-06T21:00:36.320Z,7.65
2019-05-06T21:03:06.927Z,7.77
2019-05-06T21:05:38.126Z,7.91
2019-05-06T21:08:08.630Z,7.94
2019-05-06T21:10:39.093Z,7.87
2019-05-06T21:13:09.926Z,7.77
2019-05-06T21:15:40.408Z,7.70
2019-05-06T21:18:12.111Z,7.62
2019-05-06T21:20:43.512Z,7.64
2019-05-06T21:23:14.262Z,7.58
2019-05-06T21:25:45.078Z,7.67
2019-05-06T21:28:15.984Z,7.74
2019-05-06T21:30:46.421Z,7.70
2019-05-06T21:33:17.254Z,7.72
2019-05-06T21:35:48.903Z,7.69
2019-05-06T21:38:20.095Z,7.63
2019-05-06T21:40:52.533Z,7.63
2019-05-06T21:43:22.899Z,7.59
2019-05-06T21:45:54.096Z,7.69
2019-05-06T21:48:25.085Z,7.68
2019-05-06T21:50:55.573Z,7.80
2019-05-06T21:53:26.286Z,7.81
2019-05-06T21:55:57.402Z,7.81
2019-05-06T21:58:28.267Z,7.86
2019-05-06T22:01:03.751Z,7.79
2019-05-06T22:03:34.270Z,7.79
2019-05-06T22:06:05.631Z,7.81
2019-05-06T22:08:36.491Z,7.78
2019-05-06T22:11:06.998Z,7.75
2019-05-06T22:13:37.478Z,7.77
2019-05-06T22:16:07.911Z,7.80
2019-05-06T22:18:38.397Z,7.80
2019-05-06T22:21:33.615Z,7.74
2019-05-06T22:24:06.174Z,7.76
2019-05-06T22:26:36.915Z,7.69
2019-05-06T22:29:07.352Z,7.56
2019-05-06T22:31:38.408Z,7.53
2019-05-06T22:34:09.222Z,7.51
2019-05-06T22:36:40.874Z,7.57
2019-05-06T22:39:12.055Z,7.62
2019-05-06T22:41:44.080Z,7.70
2019-05-06T22:44:17.002Z,7.70
2019-05-06T22:46:47.199Z,7.60
2019-05-06T22:49:18.077Z,7.55
2019-05-06T22:51:48.509Z,7.57
2019-05-06T22:54:19.355Z,7.57
2019-05-06T22:56:50.172Z,7.55
2019-05-06T22:59:24.402Z,7.56
2019-05-06T23:02:14.998Z,7.53
2019-05-06T23:04:47.924Z,7.49
2019-05-06T23:07:18.366Z,7.46
2019-05-06T23:09:48.852Z,7.42
2019-05-06T23:12:19.318Z,7.45
2019-05-06T23:14:49.751Z,7.42
2019-05-06T23:17:20.602Z,7.40
2019-05-06T23:19:52.760Z,7.40
2019-05-06T23:22:23.698Z,7.50
2019-05-06T23:24:54.503Z,7.56
2019-05-06T23:27:25.278Z,7.58
2019-05-06T23:29:56.016Z,7.59
2019-05-06T23:32:27.070Z,7.60
2019-05-06T23:34:57.905Z,7.58
2019-05-06T23:37:26.579Z,7.57
2019-05-06T23:40:38.626Z,7.58
2019-05-06T23:43:45.049Z,7.59
2019-05-06T23:46:52.774Z,7.63
2019-05-06T23:49:59.090Z,7.66
2019-05-06T23:53:05.180Z,7.64
2019-05-06T23:56:13.151Z,7.63
2019-05-06T23:58:43.876Z,7.61
